• Join FlightAware (Why Join?)
  • Login
  • US Flag 
10:33AM EDT


 

Airport Tracker/Info


-or-


 

Live Flight TrackerFlight Track Log ✈ TRS445 ✈ 12-May-2013 ✈ KMSP - KATL

Flight Track Log - Related Links

Times and Time Zones

All times are in EDT time to prevent confusion due to time zone crossing. See the TRS445 flight status page for this flight to view local times or setup timezone preferences in your user account.

Time Position Orientation Groundspeed Altitude Reporting Facility
EDT Latitude Longitude Course Direction KTS MPH feet Rate Location/Type
06:51AM 44.8333 -93.2333 152° Southeast 198 228 2,900  Level Minneapolis TRACON
06:52AM 44.7469 -93.2061 167° South 259 298 4,800 2,040 Climbing Minneapolis Center
06:54AM 44.6656 -93.1775 166° South 291 335 7,600 2,640 Climbing Minneapolis Center
06:55AM 44.5875 -93.1292 156° South 309 356 10,200 1,860 Climbing Minneapolis Center
06:56AM 44.4953 -93.0847 161° South 351 404 11,400 1,800 Climbing Minneapolis Center
06:57AM 44.1976 -92.8773 152° Southeast  Level FlightAware Approximate
06:57AM 44.3936 -93.0331 160° South 388 447 13,800  Level Minneapolis Center
06:58AM 44.2903 -92.9800 160° South 394 453 16,000 1,980 Climbing Minneapolis Center
06:59AM 44.1822 -92.9256 160° South 409 471 17,800 1,980 Climbing Minneapolis Center
07:00AM 44.0675 -92.8683 160° South 427 491 20,000 2,100 Climbing Minneapolis Center
07:01AM 43.9489 -92.8086 160° South 447 514 22,100 1,920 Climbing Minneapolis Center
07:02AM 43.8261 -92.7481 160° South 462 532 23,900 1,800 Climbing Minneapolis Center
07:03AM 43.6961 -92.6822 160° South 483 556 25,700 1,680 Climbing Minneapolis Center
07:04AM 43.5667 -92.6219 161° South 492 566 27,400 1,440 Climbing Minneapolis Center
07:05AM 43.4342 -92.5550 160° South 506 582 28,700 1,380 Climbing Minneapolis Center
07:06AM 43.3011 -92.4903 161° South 510 587 30,200 1,320 Climbing Minneapolis Center
07:07AM 43.1667 -92.4264 161° South 514 592 31,400 1,440 Climbing Minneapolis Center
07:08AM 43.0319 -92.3597 160° South 519 597 33,100 1,380 Climbing Minneapolis Center
07:09AM 42.8997 -92.2975 161° South 513 590 34,200 1,140 Climbing Minneapolis Center
07:10AM 42.7675 -92.2336 160° South 514 592 35,500 1,200 Climbing Minneapolis Center
07:11AM 42.6092 -92.1567 160° South 512 589 36,700 720 Climbing Minneapolis Center
07:12AM 42.4778 -92.0947 161° South 506 582 37,000 120 Climbing Chicago Center
07:13AM 42.3492 -92.0325 160° South 501 577 37,000  Level Chicago Center
07:14AM 42.2175 -91.9714 161° South 504 580 37,000  Level Chicago Center
07:15AM 42.0869 -91.9097 161° South 504 580 37,000  Level Chicago Center
07:16AM 41.9547 -91.8494 161° South 506 582 37,000  Level Chicago Center
07:17AM 41.7975 -91.7772 161° South 503 579 37,000  Level Chicago Center
07:18AM 41.6667 -91.7181 161° South 502 578 37,000  Level Chicago Center
07:19AM 41.5364 -91.6572 161° South 500 575 37,000  Level Chicago Center
07:20AM 41.4058 -91.5978 161° South 499 574 37,000  Level Chicago Center
07:21AM 41.2767 -91.5397 161° South 494 568 37,000  Level Chicago Center
07:22AM 41.1506 -91.4822 161° South 498 573 37,000  Level Chicago Center
07:23AM 41.0211 -91.4242 161° South 494 568 37,000  Level Chicago Center
07:24AM 40.8828 -91.3611 161° South 493 567 37,000  Level Chicago Center
07:25AM 40.7525 -91.3033 161° South 495 570 37,000  Level Chicago Center
07:26AM 40.6322 -91.2500 161° South 494 568 37,000  Level Chicago Center
07:27AM 40.5044 -91.1925 161° South 491 565 37,000  Level Chicago Center
07:28AM 40.3744 -91.1364 162° South 489 563 37,000  Level Kansas City Center
07:29AM 40.2625 -91.0858 161° South 488 562 37,000  Level Kansas City Center
07:30AM 40.1317 -91.0289 162° South 492 566 37,000  Level Kansas City Center
07:31AM 39.9853 -90.9636 161° South 495 570 37,000  Level Kansas City Center
07:32AM 39.8531 -90.9083 162° South 499 574 37,000  Level Kansas City Center
07:33AM 39.7283 -90.8533 161° South 498 573 37,000  Level Kansas City Center
07:34AM 39.5972 -90.7967 162° South 496 571 37,000  Level Kansas City Center
07:35AM 39.4681 -90.7417 162° South 491 565 37,000  Level Kansas City Center
07:36AM 39.3378 -90.6858 162° South 493 567 37,000  Level Kansas City Center
07:37AM 39.2086 -90.6300 161° South 490 564 37,000  Level Kansas City Center
07:38AM 39.0792 -90.5753 162° South 490 564 37,000  Level Kansas City Center
07:39AM 38.9358 -90.5128 161° South 488 562 37,000  Level Kansas City Center
07:40AM 38.8200 -90.4186 148° Southeast 496 571 37,000  Level Kansas City Center
07:41AM 38.7206 -90.2772 132° Southeast 525 604 37,000  Level Kansas City Center
07:42AM 38.6347 -90.1481 130° Southeast 518 596 37,000  Level Kansas City Center
07:43AM 38.5394 -90.0100 131° Southeast 517 595 37,000  Level Kansas City Center
07:44AM 38.4442 -89.8719 131° Southeast 517 595 37,000  Level Kansas City Center
07:45AM 38.3517 -89.7347 131° Southeast 514 592 37,000  Level Kansas City Center
07:46AM 38.2458 -89.5836 132° Southeast 516 594 37,000  Level Kansas City Center
07:47AM 38.1511 -89.4481 132° Southeast 517 595 37,000  Level Kansas City Center
07:48AM 38.0567 -89.3114 131° Southeast 516 594 37,000  Level Kansas City Center
07:49AM 37.9542 -89.1656 132° Southeast 516 594 37,000  Level Kansas City Center
07:50AM 37.8733 -89.0522 132° Southeast 514 592 37,000  Level Kansas City Center
07:51AM 37.7725 -88.9050 131° Southeast 516 594 37,000  Level Kansas City Center
07:52AM 37.6767 -88.7719 132° Southeast 512 589 37,000  Level Kansas City Center
07:53AM 37.5886 -88.6525 133° Southeast 502 578 37,000  Level Kansas City Center
07:54AM 37.4894 -88.5136 132° Southeast 498 573 37,000  Level Kansas City Center
07:55AM 37.3953 -88.3822 132° Southeast 501 577 37,000  Level Kansas City Center
07:56AM 37.3008 -88.2519 132° Southeast 502 578 37,000  Level Kansas City Center
07:57AM 37.2058 -88.1206 132° Southeast 504 580 37,000  Level Kansas City Center
07:58AM 37.1106 -87.9894 132° Southeast 505 581 37,000  Level Kansas City Center
07:59AM 37.0147 -87.8619 133° Southeast 503 579 37,000  Level Kansas City Center
08:00AM 36.9103 -87.7514 140° Southeast 491 565 37,000  Level Kansas City Center
08:01AM 36.7806 -87.6136 140° Southeast 494 568 37,000  Level Memphis Center
08:02AM 36.6781 -87.5033 139° Southeast 494 568 37,000  Level Memphis Center
08:03AM 36.5733 -87.3933 140° Southeast 489 563 37,000  Level Memphis Center
08:04AM 36.4706 -87.2836 139° Southeast 489 563 37,000  Level Memphis Center
08:05AM 36.3658 -87.1742 140° Southeast 489 563 37,000 -240 Level Memphis Center
08:06AM 36.2628 -87.0675 140° Southeast 489 563 36,600 -600 Descending Memphis Center
08:07AM 36.1556 -86.9511 139° Southeast 495 570 35,800 -900 Descending Memphis Center
08:08AM 36.0525 -86.8422 139° Southeast 495 570 34,900 -900 Descending Memphis Center
08:09AM 35.9469 -86.7314 140° Southeast 495 570 34,000 -900 Descending Memphis Center
08:10AM 35.8417 -86.6208 140° Southeast 490 564 33,100 -900 Descending Memphis Center
08:11AM 35.7339 -86.5106 140° Southeast 495 570 32,200 -900 Descending Memphis Center
08:12AM 35.5942 -86.3628 139° Southeast 519 597 31,000 -540 Descending Atlanta Center
08:13AM 35.4856 -86.2500 140° Southeast 519 597 31,000  Level Atlanta Center
08:14AM 35.3689 -86.1322 141° Southeast 514 592 31,000  Level Atlanta Center
08:15AM 35.2642 -86.0228 140° Southeast 506 582 31,000  Level Atlanta Center
08:16AM 35.1594 -85.9161 140° Southeast 500 575 31,000  Level Atlanta Center
08:17AM 35.0525 -85.8147 142° Southeast 495 570 31,000 -60 Level Atlanta Center
08:18AM 34.9389 -85.7264 147° Southeast 490 564 30,900 -360 Descending Atlanta Center
08:19AM 34.8233 -85.6353 147° Southeast 490 564 30,300 -660 Descending Atlanta Center
08:20AM 34.7097 -85.5472 147° Southeast 490 564 29,600 -1,620 Descending Atlanta Center
08:21AM 34.5958 -85.4569 147° Southeast 490 564 27,100 -2,700 Descending Atlanta Center
08:22AM 34.4842 -85.3694 147° Southeast 490 564 24,300 -2,700 Descending Atlanta Center
08:23AM 34.3786 -85.2872 147° Southeast 479 551 21,700 -2,580 Descending Atlanta Center
08:24AM 34.2792 -85.2103 147° Southeast 442 509 19,200 -2,460 Descending Atlanta Center
08:25AM 34.1775 -85.1336 148° Southeast 430 495 16,800 -2,460 Descending Atlanta Center
08:26AM 34.0969 -85.0347 135° Southeast 418 481 14,300 -1,800 Descending Atlanta Center
08:27AM 34.0186 -84.9361 134° Southeast 406 467 13,300 -1,020 Descending Atlanta Center
08:28AM 33.9439 -84.8400 133° Southeast 401 461 12,300 -660 Descending Atlanta Center
08:29AM 33.8694 -84.7444 133° Southeast 395 455 12,000 -180 Descending Atlanta Center
08:30AM 33.7906 -84.6486 135° Southeast 395 455 12,000 -300 Level Atlanta Center
08:31AM 33.7325 -84.5608 128° Southeast 368 423 11,400 -1,320 Descending Atlanta Center
08:32AM 33.7289 -84.4658 93° East 288 331 9,400 -2,100 Descending Atlanta Center
08:33AM 33.7292 -84.3736 90° East 276 318 7,300 -1,860 Descending Atlanta Center
08:34AM 33.7292 -84.2911 90° East 261 300 5,700 -1,500 Descending Atlanta Center
08:36AM 33.7000 -84.2333 121° Southeast 226 260 4,300 -1,140 Descending Atlanta TRACON
08:37AM 33.6500 -84.2667 209° Southwest 206 237 3,400 -900 Descending Atlanta TRACON
08:38AM 33.6500 -84.3167 270° West 174 200 2,600 -840 Descending Atlanta TRACON
08:39AM 33.6500 -84.3667 270° West 136 157 1,800 -840 Descending Atlanta TRACON
08:41AM 33.6333 -84.4167 North  Level FlightAware Approximate
08:48AM 33.6367 -84.4279 North  Level Estimated
08:49AM 33.6367 -84.4279 North  Level Estimated